Hovedside
METAR-TAF:

METAR-TAF

Lufthavner :

Gaya, India

breddegrad: 24-44-40N, lengdegrad: 84-57-04E, høyde over havet: 116 m

Gjeldene værobservasjon

Denne rapporten ble laget for 50 minutter siden, klokken 01:00 UTC
Vind 5 kt fra Nordøst
Temperatur 30°C
Luftfuktighet 75%
Trykk 1000 hPa
Sikt: 2500 m
Spredte skyer i en høyde av 2000 ft
Få skyer i en høyde av 3000 ft, Bygeskyer.
Brutte skyer i en høyde av 10000 ft
dis,

METAR: VEGY 200100Z 05005KT 2500 BR SCT020 FEW030CB BKN100 30/25 Q1000

Tid: 07:20 (01:50 UTC)

Varsel

Denne rapporten ble laget for 11 timer og 50 minutter siden, klokken 14:00 UTC
Varsel gyldig fra 19. klokken 15 UTC til 20. klokken 00 UTC
Vind 4 kt fra Sørøst
Sikt: 4000 m
Spredte skyer i en høyde av 10000 ft
dis
Blir
fra 19. klokken 21 UTC til 19. klokken 23 UTC
Sikt: 3000 m
dis,

TAF: VEGY 191400Z 1915/2000 14004KT 4000 HZ SCT100 BECMG 1921/1923 3000 HZ

Værobservasjoner og værvarsel for over 4000 flyplasser (METAR- og TAF-rapporter).

Tilgjengelige stasjoner er representert av de røde og gule prikkene på kartet.

Hold musepekeren over prikken for å se navnet på stasjonen.

Klikk så for å se værobservasjoner og -varsler.

For å forandre kartet kan du klikke på den grønne knappen med svart kryss for å zoome inn, på den grønne knappen med strek for å zoome ut, eller på de grønne pilene for å se tilstøtende kart.


METAR-TAF: